createdAt,value
2023-03-16T00:02:24.639Z,101199.84
2023-03-16T00:07:26.810Z,101199.03
2023-03-16T00:12:28.640Z,101191.91
2023-03-16T00:17:30.653Z,101197.28
2023-03-16T00:22:32.870Z,101189.38
2023-03-16T00:27:35.162Z,101183.03
2023-03-16T00:32:38.353Z,101174.22
2023-03-16T00:37:40.317Z,101175.06
2023-03-16T00:42:42.512Z,101158.31
2023-03-16T00:47:44.383Z,101153.91
2023-03-16T00:52:46.315Z,101157.53
2023-03-16T00:57:48.435Z,101155.75
2023-03-16T01:02:50.471Z,101148.66
2023-03-16T01:07:52.603Z,101145.09
2023-03-16T01:12:56.338Z,101139.84
2023-03-16T01:17:58.442Z,101117.78
2023-03-16T01:23:00.513Z,101108.16
2023-03-16T01:28:02.554Z,101100.00
2023-03-16T01:33:04.591Z,101100.09
2023-03-16T01:38:06.633Z,101095.69
2023-03-16T01:43:11.506Z,101090.38
2023-03-16T01:48:14.626Z,101085.09
2023-03-16T01:53:16.787Z,101078.91
2023-03-16T01:58:18.648Z,101071.03
2023-03-16T02:03:21.942Z,101067.47
2023-03-16T02:08:24.943Z,101069.09
2023-03-16T02:13:29.773Z,101067.38
2023-03-16T02:18:32.161Z,101068.28
2023-03-16T02:23:35.257Z,101068.25
2023-03-16T02:29:11.755Z,101062.19
2023-03-16T02:34:17.401Z,101055.03
2023-03-16T02:39:19.606Z,101058.56
2023-03-16T02:44:27.941Z,101051.56
2023-03-16T02:49:42.521Z,101050.72
2023-03-16T02:54:44.577Z,101050.66
2023-03-16T02:59:46.631Z,101053.31
2023-03-16T03:04:48.709Z,101044.50
2023-03-16T03:09:53.889Z,101042.66
2023-03-16T03:14:57.572Z,101038.31
2023-03-16T03:20:00.840Z,101033.00
2023-03-16T03:25:03.155Z,101019.84
2023-03-16T03:30:06.077Z,101018.78
2023-03-16T03:35:09.160Z,101017.19
2023-03-16T03:40:13.584Z,101015.38
2023-03-16T03:45:15.985Z,101018.84
2023-03-16T03:50:18.077Z,101005.59
2023-03-16T03:55:20.221Z,101003.03
2023-03-16T04:00:22.221Z,101023.34
2023-03-16T04:05:27.674Z,101022.34
2023-03-16T04:10:31.300Z,101024.19
2023-03-16T04:15:33.471Z,101022.41
2023-03-16T04:20:35.481Z,101020.69
2023-03-16T04:25:38.951Z,101011.78
2023-03-16T04:30:43.313Z,100999.47
2023-03-16T04:35:46.365Z,100994.19
2023-03-16T04:40:48.380Z,100988.88
2023-03-16T04:45:50.897Z,100982.72
2023-03-16T04:50:52.863Z,100986.22
2023-03-16T04:55:54.681Z,100984.63
2023-03-16T05:00:56.716Z,100982.78
2023-03-16T05:05:58.760Z,100985.38
2023-03-16T05:11:00.832Z,100975.47
2023-03-16T05:16:02.716Z,100972.09
2023-03-16T05:21:04.809Z,100977.50
2023-03-16T05:26:07.959Z,100980.97
2023-03-16T05:31:10.452Z,100973.06
2023-03-16T05:36:13.503Z,100989.78
2023-03-16T05:41:15.464Z,100980.13
2023-03-16T05:46:18.973Z,100970.41
2023-03-16T05:51:22.788Z,100977.41
2023-03-16T05:56:26.001Z,100977.50
2023-03-16T06:01:27.866Z,100977.50
2023-03-16T06:06:29.891Z,100965.19
2023-03-16T06:11:33.194Z,100965.13
2023-03-16T06:16:35.226Z,100952.00
2023-03-16T06:21:37.353Z,100951.00
2023-03-16T06:26:39.408Z,100956.34
2023-03-16T06:31:41.280Z,100959.09
2023-03-16T06:36:43.253Z,100962.59
2023-03-16T06:41:45.142Z,100962.56
2023-03-16T06:46:47.210Z,100956.44
2023-03-16T06:51:49.096Z,100935.09
2023-03-16T06:56:51.325Z,100940.44
2023-03-16T07:01:53.113Z,100950.38
2023-03-16T07:06:54.873Z,100954.66
2023-03-16T07:11:56.538Z,100942.38
2023-03-16T07:16:58.474Z,100956.56
2023-03-16T07:22:00.326Z,100956.44
2023-03-16T07:27:02.376Z,100961.75
2023-03-16T07:32:04.657Z,100961.81
2023-03-16T07:37:08.521Z,100966.16
2023-03-16T07:42:10.386Z,100949.34
2023-03-16T07:47:15.360Z,100953.84
2023-03-16T07:52:17.361Z,100938.00
2023-03-16T07:57:22.741Z,100948.69
2023-03-16T08:02:24.835Z,100940.72
2023-03-16T08:07:26.649Z,100931.84
2023-03-16T08:12:28.720Z,100931.97
2023-03-16T08:17:30.635Z,100939.00
2023-03-16T08:22:32.950Z,100935.34
2023-03-16T08:27:34.979Z,100931.03
2023-03-16T08:32:37.772Z,100927.59
2023-03-16T08:37:40.246Z,100927.63
2023-03-16T08:42:43.339Z,100927.53
2023-03-16T08:47:45.314Z,100922.16
2023-03-16T08:52:49.271Z,100926.53
2023-03-16T08:57:51.355Z,100925.72
2023-03-16T09:02:53.463Z,100923.88
2023-03-16T09:07:55.935Z,100911.22
2023-03-16T09:12:57.883Z,100911.28
2023-03-16T09:18:00.892Z,100916.59
2023-03-16T09:23:03.844Z,100911.28
2023-03-16T09:28:06.287Z,100903.28
2023-03-16T09:33:08.812Z,100894.31
2023-03-16T09:38:11.977Z,100904.69
2023-03-16T09:43:35.364Z,100895.91
2023-03-16T09:48:40.110Z,100898.56
2023-03-16T09:53:42.400Z,100891.38
2023-03-16T09:58:44.230Z,100888.78
2023-03-16T10:04:33.780Z,100876.31
2023-03-16T10:10:07.487Z,100878.84
2023-03-16T10:15:17.025Z,100866.50
2023-03-16T10:20:22.755Z,100855.69
2023-03-16T10:25:46.766Z,100871.75
2023-03-16T10:30:50.737Z,100854.88
2023-03-16T10:35:56.828Z,100843.38
2023-03-16T10:41:00.969Z,100840.84
2023-03-16T10:46:03.172Z,100836.47
2023-03-16T10:51:12.524Z,100842.56
2023-03-16T10:56:25.506Z,100830.97
2023-03-16T11:01:29.645Z,100832.88
2023-03-16T11:06:33.853Z,100831.09
2023-03-16T11:11:36.632Z,100834.63
2023-03-16T11:16:48.215Z,100834.81
2023-03-16T11:22:23.585Z,100824.22
2023-03-16T11:27:33.345Z,100806.34
2023-03-16T11:32:41.311Z,100799.81
2023-03-16T11:37:46.551Z,100784.16
2023-03-16T11:43:21.158Z,100774.47
2023-03-16T11:48:37.001Z,100765.72
2023-03-16T11:53:48.706Z,100752.41
2023-03-16T11:58:50.985Z,100760.34
2023-03-16T12:04:02.394Z,100740.06
2023-03-16T12:09:39.660Z,100759.41
2023-03-16T12:14:47.513Z,100734.69
2023-03-16T12:20:21.569Z,100727.59
2023-03-16T12:25:30.324Z,100724.03
2023-03-16T12:30:50.811Z,100716.19
2023-03-16T12:36:04.290Z,100709.13
2023-03-16T12:41:24.970Z,100697.63
2023-03-16T12:46:31.098Z,100694.63
2023-03-16T12:51:38.346Z,100693.91
2023-03-16T12:56:48.500Z,100680.53
2023-03-16T13:01:58.407Z,100666.59
2023-03-16T13:07:08.178Z,100664.03
2023-03-16T13:12:21.680Z,100661.22
2023-03-16T13:17:25.053Z,100657.72
2023-03-16T13:22:29.793Z,100640.75
2023-03-16T13:27:34.764Z,100634.72
2023-03-16T13:32:37.013Z,100631.34
2023-03-16T13:37:42.103Z,100617.78
2023-03-16T13:42:49.814Z,100611.78
2023-03-16T13:47:52.032Z,100600.91
2023-03-16T13:53:01.266Z,100579.81
2023-03-16T13:58:05.698Z,100579.97
2023-03-16T14:03:20.301Z,100577.31
2023-03-16T14:08:24.282Z,100566.41
2023-03-16T14:13:29.530Z,100564.75
2023-03-16T14:18:36.939Z,100562.25
2023-03-16T14:23:45.567Z,100534.88
2023-03-16T14:29:06.779Z,100542.91
2023-03-16T14:34:30.734Z,100533.94
2023-03-16T14:39:33.456Z,100527.78
2023-03-16T14:44:37.179Z,100526.03
2023-03-16T14:49:42.758Z,100510.31
2023-03-16T14:54:45.209Z,100506.41
2023-03-16T14:59:47.493Z,100499.63
2023-03-16T15:04:50.284Z,100501.25
2023-03-16T15:09:54.184Z,100497.75
2023-03-16T15:15:14.708Z,100483.56
2023-03-16T15:20:40.122Z,100490.44
2023-03-16T15:25:44.853Z,100480.91
2023-03-16T15:30:52.314Z,100480.91
2023-03-16T15:35:57.125Z,100475.91
2023-03-16T15:41:00.166Z,100461.44
2023-03-16T15:46:02.267Z,100452.59
2023-03-16T15:51:23.146Z,100452.91
2023-03-16T15:56:30.324Z,100445.72
2023-03-16T16:01:45.210Z,100445.50
2023-03-16T16:06:48.155Z,100442.06
2023-03-16T16:11:50.695Z,100435.19
2023-03-16T16:16:54.681Z,100431.38
2023-03-16T16:21:56.700Z,100422.56
2023-03-16T16:26:58.580Z,100424.13
2023-03-16T16:32:00.966Z,100424.13
2023-03-16T16:37:02.818Z,100415.69
2023-03-16T16:42:05.219Z,100417.25
2023-03-16T16:47:20.340Z,100418.44
2023-03-16T16:52:22.946Z,100424.25
2023-03-16T16:57:25.359Z,100418.78
2023-03-16T17:02:33.259Z,100424.09
2023-03-16T17:07:35.572Z,100424.72
2023-03-16T17:12:37.733Z,100424.09
2023-03-16T17:17:40.708Z,100429.53
2023-03-16T17:22:42.553Z,100426.16
2023-03-16T17:27:47.532Z,100427.94
2023-03-16T17:32:53.736Z,100428.41
2023-03-16T17:37:56.224Z,100431.53
2023-03-16T17:42:58.134Z,100438.03
2023-03-16T17:48:00.161Z,100436.16
2023-03-16T17:53:04.011Z,100429.28
2023-03-16T17:58:06.316Z,100427.56
2023-03-16T18:03:17.856Z,100432.72
2023-03-16T18:08:29.759Z,100428.59
2023-03-16T18:13:37.232Z,100426.66
2023-03-16T18:18:42.901Z,100420.75
2023-03-16T18:23:45.000Z,100429.44
2023-03-16T18:28:46.952Z,100422.56
2023-03-16T18:33:51.504Z,100429.13
2023-03-16T18:38:54.343Z,100424.13
2023-03-16T18:44:02.390Z,100427.56
2023-03-16T18:49:35.885Z,100428.81
2023-03-16T18:54:39.275Z,100426.78
2023-03-16T18:59:41.651Z,100430.53
2023-03-16T19:04:44.425Z,100430.44
2023-03-16T19:09:46.465Z,100427.63
2023-03-16T19:14:48.625Z,100425.94
2023-03-16T19:19:50.485Z,100420.75
2023-03-16T19:24:56.398Z,100423.59
2023-03-16T19:29:58.909Z,100406.03
2023-03-16T19:35:01.369Z,100392.78
2023-03-16T19:40:05.632Z,100381.88
2023-03-16T19:45:16.000Z,100386.53
2023-03-16T19:50:24.343Z,100382.19
2023-03-16T19:55:31.914Z,100367.13
2023-03-16T20:00:35.207Z,100359.88
2023-03-16T20:05:39.119Z,100359.16
2023-03-16T20:10:41.025Z,100335.28
2023-03-16T20:15:43.051Z,100328.28
2023-03-16T20:20:46.453Z,100331.78
2023-03-16T20:25:49.749Z,100340.84
2023-03-16T20:30:52.209Z,100325.72
2023-03-16T20:35:54.292Z,100318.53
2023-03-16T20:40:57.113Z,100317.81
2023-03-16T20:46:01.773Z,100312.38
2023-03-16T20:51:04.223Z,100300.06
2023-03-16T20:56:06.976Z,100300.06
2023-03-16T21:01:17.813Z,100291.25
2023-03-16T21:06:30.909Z,100289.50
2023-03-16T21:11:38.745Z,100289.38
2023-03-16T21:16:40.710Z,100285.75
2023-03-16T21:21:43.178Z,100278.78
2023-03-16T21:26:45.692Z,100278.84
2023-03-16T21:31:48.754Z,100274.69
2023-03-16T21:36:50.683Z,100260.00
2023-03-16T21:41:53.920Z,100262.94
2023-03-16T21:46:56.018Z,100261.16
2023-03-16T21:51:57.861Z,100259.69
2023-03-16T21:56:59.813Z,100263.13
2023-03-16T22:02:02.579Z,100263.81
2023-03-16T22:07:11.078Z,100274.69
2023-03-16T22:12:13.705Z,100268.63
2023-03-16T22:17:22.577Z,100259.25
2023-03-16T22:22:24.416Z,100256.28
2023-03-16T22:27:26.711Z,100263.13
2023-03-16T22:32:29.102Z,100258.78
2023-03-16T22:37:31.183Z,100256.47
2023-03-16T22:42:40.317Z,100244.97
2023-03-16T22:47:42.311Z,100229.16
2023-03-16T22:52:47.904Z,100231.97
2023-03-16T22:57:52.097Z,100239.00
2023-03-16T23:02:54.139Z,100247.72
2023-03-16T23:07:57.973Z,100268.06
2023-03-16T23:13:00.647Z,100271.66
2023-03-16T23:18:02.451Z,100271.50
2023-03-16T23:23:04.724Z,100259.09
2023-03-16T23:28:07.356Z,100258.16
2023-03-16T23:33:13.110Z,100257.44
2023-03-16T23:38:15.125Z,100246.00
2023-03-16T23:43:17.383Z,100230.94
2023-03-16T23:48:21.315Z,100218.56
2023-03-16T23:53:24.238Z,100231.81
2023-03-16T23:58:26.695Z,100235.06
